sensor_id;sensor_type;location;lat;lon;timestamp;pressure;altitude;pressure_sealevel;temperature;humidity
75913;BME280;64592;52.168;21.040;2023-05-07T00:03:00;100991.22;;;6.38;88.43
75913;BME280;64592;52.168;21.040;2023-05-07T00:08:02;101000.66;;;6.28;88.62
75913;BME280;64592;52.168;21.040;2023-05-07T00:13:06;100990.38;;;6.18;89.12
75913;BME280;64592;52.168;21.040;2023-05-07T00:18:10;100986.47;;;6.26;89.15
75913;BME280;64592;52.168;21.040;2023-05-07T00:23:12;100991.53;;;6.32;88.10
75913;BME280;64592;52.168;21.040;2023-05-07T00:28:28;100993.28;;;6.33;88.59
75913;BME280;64592;52.168;21.040;2023-05-07T00:33:32;101001.72;;;6.23;89.34
75913;BME280;64592;52.168;21.040;2023-05-07T00:38:36;101000.28;;;6.16;89.98
75913;BME280;64592;52.168;21.040;2023-05-07T00:43:39;100997.38;;;6.02;91.04
75913;BME280;64592;52.168;21.040;2023-05-07T00:48:41;101004.78;;;5.97;90.67
75913;BME280;64592;52.168;21.040;2023-05-07T00:53:43;101001.94;;;6.00;90.66
75913;BME280;64592;52.168;21.040;2023-05-07T00:58:46;101006.44;;;6.00;90.62
75913;BME280;64592;52.168;21.040;2023-05-07T01:03:48;101012.94;;;5.94;91.03
75913;BME280;64592;52.168;21.040;2023-05-07T01:08:50;101008.72;;;5.89;91.63
75913;BME280;64592;52.168;21.040;2023-05-07T01:13:58;101013.34;;;5.85;91.63
75913;BME280;64592;52.168;21.040;2023-05-07T01:19:02;101022.72;;;5.75;92.39
75913;BME280;64592;52.168;21.040;2023-05-07T01:24:06;101026.31;;;5.74;92.07
75913;BME280;64592;52.168;21.040;2023-05-07T01:29:08;101022.97;;;5.69;92.57
75913;BME280;64592;52.168;21.040;2023-05-07T01:34:12;101021.91;;;5.73;91.29
75913;BME280;64592;52.168;21.040;2023-05-07T01:39:17;101019.56;;;5.65;92.21
75913;BME280;64592;52.168;21.040;2023-05-07T01:44:21;101016.88;;;5.65;92.86
75913;BME280;64592;52.168;21.040;2023-05-07T01:49:24;101021.25;;;5.68;92.33
75913;BME280;64592;52.168;21.040;2023-05-07T01:54:28;101026.44;;;5.71;92.96
75913;BME280;64592;52.168;21.040;2023-05-07T01:59:29;101015.16;;;5.64;92.65
75913;BME280;64592;52.168;21.040;2023-05-07T02:04:33;101021.25;;;5.68;93.26
75913;BME280;64592;52.168;21.040;2023-05-07T02:09:38;101016.94;;;5.64;92.86
75913;BME280;64592;52.168;21.040;2023-05-07T02:14:41;101010.13;;;5.57;93.29
75913;BME280;64592;52.168;21.040;2023-05-07T02:19:43;101015.38;;;5.60;93.99
75913;BME280;64592;52.168;21.040;2023-05-07T02:24:48;101022.44;;;5.61;92.61
75913;BME280;64592;52.168;21.040;2023-05-07T02:29:50;101020.19;;;5.52;93.36
75913;BME280;64592;52.168;21.040;2023-05-07T02:34:52;101019.25;;;5.53;94.28
75913;BME280;64592;52.168;21.040;2023-05-07T02:39:55;101023.13;;;5.45;94.30
75913;BME280;64592;52.168;21.040;2023-05-07T02:44:57;101041.69;;;5.48;93.82
75913;BME280;64592;52.168;21.040;2023-05-07T02:50:01;101042.22;;;5.57;94.21
75913;BME280;64592;52.168;21.040;2023-05-07T02:55:07;101035.81;;;5.61;93.04
75913;BME280;64592;52.168;21.040;2023-05-07T03:00:13;101041.19;;;5.61;93.57
75913;BME280;64592;52.168;21.040;2023-05-07T03:05:15;101041.44;;;5.55;93.54
75913;BME280;64592;52.168;21.040;2023-05-07T03:10:20;101048.66;;;5.53;93.94
75913;BME280;64592;52.168;21.040;2023-05-07T03:15:22;101052.94;;;5.57;93.15
75913;BME280;64592;52.168;21.040;2023-05-07T03:20:24;101055.09;;;5.69;93.21
75913;BME280;64592;52.168;21.040;2023-05-07T03:25:27;101055.94;;;5.69;91.76
75913;BME280;64592;52.168;21.040;2023-05-07T03:30:30;101068.41;;;5.70;92.42
75913;BME280;64592;52.168;21.040;2023-05-07T03:35:33;101074.72;;;5.68;92.68
75913;BME280;64592;52.168;21.040;2023-05-07T03:40:36;101080.22;;;5.65;92.94
75913;BME280;64592;52.168;21.040;2023-05-07T03:45:37;101092.66;;;5.66;92.73
75913;BME280;64592;52.168;21.040;2023-05-07T03:50:39;101084.84;;;5.61;92.64
75913;BME280;64592;52.168;21.040;2023-05-07T03:55:42;101088.09;;;5.68;91.86
75913;BME280;64592;52.168;21.040;2023-05-07T04:00:44;101093.72;;;5.62;93.05
75913;BME280;64592;52.168;21.040;2023-05-07T04:05:52;101097.34;;;5.61;92.66
75913;BME280;64592;52.168;21.040;2023-05-07T04:10:56;101108.69;;;5.66;92.78
75913;BME280;64592;52.168;21.040;2023-05-07T04:16:01;101117.53;;;5.68;93.13
75913;BME280;64592;52.168;21.040;2023-05-07T04:21:03;101113.00;;;5.70;92.39
75913;BME280;64592;52.168;21.040;2023-05-07T04:26:07;101125.88;;;5.60;93.10
75913;BME280;64592;52.168;21.040;2023-05-07T04:31:09;101130.25;;;5.63;93.18
75913;BME280;64592;52.168;21.040;2023-05-07T04:36:11;101130.03;;;5.67;93.20
75913;BME280;64592;52.168;21.040;2023-05-07T04:41:16;101130.84;;;5.69;93.32
75913;BME280;64592;52.168;21.040;2023-05-07T04:46:17;101140.78;;;5.66;93.13
75913;BME280;64592;52.168;21.040;2023-05-07T04:51:19;101137.31;;;5.64;93.66
75913;BME280;64592;52.168;21.040;2023-05-07T04:56:23;101139.56;;;5.53;93.95
75913;BME280;64592;52.168;21.040;2023-05-07T05:01:25;101148.16;;;5.61;93.89
75913;BME280;64592;52.168;21.040;2023-05-07T05:06:29;101156.97;;;5.63;93.95
75913;BME280;64592;52.168;21.040;2023-05-07T05:11:32;101162.19;;;5.66;93.88
75913;BME280;64592;52.168;21.040;2023-05-07T05:16:34;101164.00;;;5.65;93.34
75913;BME280;64592;52.168;21.040;2023-05-07T05:21:37;101171.91;;;5.68;93.51
75913;BME280;64592;52.168;21.040;2023-05-07T05:26:41;101171.41;;;5.79;93.11
75913;BME280;64592;52.168;21.040;2023-05-07T05:31:45;101170.94;;;5.91;92.31
75913;BME280;64592;52.168;21.040;2023-05-07T05:36:46;101182.44;;;5.93;92.08
75913;BME280;64592;52.168;21.040;2023-05-07T05:41:50;101179.44;;;6.01;91.02
75913;BME280;64592;52.168;21.040;2023-05-07T05:46:53;101178.03;;;6.12;91.07
75913;BME280;64592;52.168;21.040;2023-05-07T05:51:58;101196.22;;;6.24;90.50
75913;BME280;64592;52.168;21.040;2023-05-07T05:57:01;101187.66;;;6.37;89.39
75913;BME280;64592;52.168;21.040;2023-05-07T06:02:04;101201.44;;;6.48;88.57
75913;BME280;64592;52.168;21.040;2023-05-07T06:07:08;101196.38;;;6.60;88.38
75913;BME280;64592;52.168;21.040;2023-05-07T06:12:12;101203.94;;;6.71;88.67
75913;BME280;64592;52.168;21.040;2023-05-07T06:17:16;101205.41;;;6.78;88.22
75913;BME280;64592;52.168;21.040;2023-05-07T06:22:19;101207.44;;;6.92;86.85
75913;BME280;64592;52.168;21.040;2023-05-07T06:27:25;101211.78;;;6.94;86.01
75913;BME280;64592;52.168;21.040;2023-05-07T06:32:28;101208.47;;;7.08;86.33
75913;BME280;64592;52.168;21.040;2023-05-07T06:37:31;101213.69;;;7.11;84.15
75913;BME280;64592;52.168;21.040;2023-05-07T06:42:35;101201.56;;;7.21;84.29
75913;BME280;64592;52.168;21.040;2023-05-07T06:47:37;101213.91;;;7.25;84.04
75913;BME280;64592;52.168;21.040;2023-05-07T06:52:40;101214.22;;;7.36;83.62
75913;BME280;64592;52.168;21.040;2023-05-07T06:57:43;101218.72;;;7.36;82.36
75913;BME280;64592;52.168;21.040;2023-05-07T07:02:46;101222.84;;;7.43;82.34
75913;BME280;64592;52.168;21.040;2023-05-07T07:07:49;101231.56;;;7.48;82.77
75913;BME280;64592;52.168;21.040;2023-05-07T07:12:54;101237.69;;;7.50;83.26
75913;BME280;64592;52.168;21.040;2023-05-07T07:17:56;101238.13;;;7.60;84.58
75913;BME280;64592;52.168;21.040;2023-05-07T07:23:00;101242.13;;;7.70;82.25
75913;BME280;64592;52.168;21.040;2023-05-07T07:28:03;101239.88;;;7.61;81.45
75913;BME280;64592;52.168;21.040;2023-05-07T07:33:07;101251.88;;;7.71;82.21
75913;BME280;64592;52.168;21.040;2023-05-07T07:38:16;101246.22;;;7.77;81.70
75913;BME280;64592;52.168;21.040;2023-05-07T07:43:19;101259.53;;;7.97;81.22
75913;BME280;64592;52.168;21.040;2023-05-07T07:48:21;101263.06;;;7.98;79.98
75913;BME280;64592;52.168;21.040;2023-05-07T07:53:22;101251.88;;;8.07;78.93
75913;BME280;64592;52.168;21.040;2023-05-07T07:58:30;101268.22;;;8.19;79.63
75913;BME280;64592;52.168;21.040;2023-05-07T08:03:33;101263.28;;;8.29;79.28
75913;BME280;64592;52.168;21.040;2023-05-07T08:08:35;101264.34;;;8.25;76.90
75913;BME280;64592;52.168;21.040;2023-05-07T08:13:39;101279.09;;;8.35;76.74
75913;BME280;64592;52.168;21.040;2023-05-07T08:18:41;101278.13;;;8.53;76.68
75913;BME280;64592;52.168;21.040;2023-05-07T08:23:42;101276.56;;;8.67;75.71
75913;BME280;64592;52.168;21.040;2023-05-07T08:28:45;101260.25;;;8.70;73.52
75913;BME280;64592;52.168;21.040;2023-05-07T08:33:47;101274.50;;;8.72;73.58
75913;BME280;64592;52.168;21.040;2023-05-07T08:38:49;101282.69;;;8.69;73.75
75913;BME280;64592;52.168;21.040;2023-05-07T08:43:55;101275.28;;;8.74;73.46
75913;BME280;64592;52.168;21.040;2023-05-07T08:48:59;101294.41;;;8.68;73.26
75913;BME280;64592;52.168;21.040;2023-05-07T08:54:01;101296.31;;;8.66;71.99
75913;BME280;64592;52.168;21.040;2023-05-07T08:59:05;101308.41;;;8.74;72.26
75913;BME280;64592;52.168;21.040;2023-05-07T09:04:07;101308.84;;;8.82;70.73
75913;BME280;64592;52.168;21.040;2023-05-07T09:09:15;101317.72;;;8.84;70.97
75913;BME280;64592;52.168;21.040;2023-05-07T09:14:21;101321.34;;;8.83;70.17
75913;BME280;64592;52.168;21.040;2023-05-07T09:19:23;101322.59;;;8.93;69.17
75913;BME280;64592;52.168;21.040;2023-05-07T09:24:25;101323.53;;;9.10;70.24
75913;BME280;64592;52.168;21.040;2023-05-07T09:29:31;101335.38;;;9.23;68.50
75913;BME280;64592;52.168;21.040;2023-05-07T09:34:36;101331.91;;;9.37;66.24
75913;BME280;64592;52.168;21.040;2023-05-07T09:39:41;101330.69;;;9.42;66.55
75913;BME280;64592;52.168;21.040;2023-05-07T09:44:45;101342.09;;;9.47;66.19
75913;BME280;64592;52.168;21.040;2023-05-07T09:49:48;101334.59;;;9.37;65.56
75913;BME280;64592;52.168;21.040;2023-05-07T09:54:50;101343.66;;;9.51;64.79
75913;BME280;64592;52.168;21.040;2023-05-07T09:59:55;101340.03;;;9.52;64.88
75913;BME280;64592;52.168;21.040;2023-05-07T10:05:00;101351.59;;;9.54;64.32
75913;BME280;64592;52.168;21.040;2023-05-07T10:10:04;101353.09;;;9.43;65.36
75913;BME280;64592;52.168;21.040;2023-05-07T10:15:10;101366.63;;;9.41;66.34
75913;BME280;64592;52.168;21.040;2023-05-07T10:20:12;101363.44;;;9.50;64.33
75913;BME280;64592;52.168;21.040;2023-05-07T10:25:18;101363.38;;;9.52;63.07
75913;BME280;64592;52.168;21.040;2023-05-07T10:30:31;101379.53;;;9.52;63.99
75913;BME280;64592;52.168;21.040;2023-05-07T10:35:43;101369.50;;;9.38;64.53
75913;BME280;64592;52.168;21.040;2023-05-07T10:40:45;101372.81;;;9.43;64.26
75913;BME280;64592;52.168;21.040;2023-05-07T10:46:16;101381.84;;;9.42;63.81
75913;BME280;64592;52.168;21.040;2023-05-07T10:51:19;101389.03;;;9.42;64.15
75913;BME280;64592;52.168;21.040;2023-05-07T10:56:26;101382.97;;;9.38;63.91
75913;BME280;64592;52.168;21.040;2023-05-07T11:01:52;101386.59;;;9.37;63.86
75913;BME280;64592;52.168;21.040;2023-05-07T11:07:25;101393.47;;;9.43;63.58
75913;BME280;64592;52.168;21.040;2023-05-07T11:12:56;101394.81;;;9.51;63.48
75913;BME280;64592;52.168;21.040;2023-05-07T11:18:02;101400.56;;;9.61;64.72
75913;BME280;64592;52.168;21.040;2023-05-07T11:23:05;101390.69;;;9.77;63.91
75913;BME280;64592;52.168;21.040;2023-05-07T11:28:09;101393.41;;;9.93;62.95
75913;BME280;64592;52.168;21.040;2023-05-07T11:33:17;101407.84;;;10.07;62.13
75913;BME280;64592;52.168;21.040;2023-05-07T11:38:19;101408.97;;;10.19;61.49
75913;BME280;64592;52.168;21.040;2023-05-07T11:43:22;101413.13;;;10.40;60.68
75913;BME280;64592;52.168;21.040;2023-05-07T11:48:28;101417.81;;;10.52;60.81
75913;BME280;64592;52.168;21.040;2023-05-07T11:53:41;101405.25;;;10.67;59.59
75913;BME280;64592;52.168;21.040;2023-05-07T11:58:45;101413.69;;;10.77;59.13
75913;BME280;64592;52.168;21.040;2023-05-07T12:03:50;101406.38;;;11.09;59.18
75913;BME280;64592;52.168;21.040;2023-05-07T12:08:53;101409.66;;;11.28;59.29
75913;BME280;64592;52.168;21.040;2023-05-07T12:13:55;101415.81;;;11.16;57.44
75913;BME280;64592;52.168;21.040;2023-05-07T12:18:58;101424.47;;;11.07;57.65
75913;BME280;64592;52.168;21.040;2023-05-07T12:24:01;101419.56;;;10.83;57.52
75913;BME280;64592;52.168;21.040;2023-05-07T12:29:03;101428.78;;;10.65;58.38
75913;BME280;64592;52.168;21.040;2023-05-07T12:34:07;101418.75;;;10.97;57.29
75913;BME280;64592;52.168;21.040;2023-05-07T12:39:13;101417.31;;;11.06;56.48
75913;BME280;64592;52.168;21.040;2023-05-07T12:44:15;101432.81;;;11.18;56.78
75913;BME280;64592;52.168;21.040;2023-05-07T12:49:22;101439.72;;;11.22;56.83
75913;BME280;64592;52.168;21.040;2023-05-07T12:54:28;101424.34;;;11.38;55.19
75913;BME280;64592;52.168;21.040;2023-05-07T12:59:34;101429.81;;;11.22;57.12
75913;BME280;64592;52.168;21.040;2023-05-07T13:04:37;101440.78;;;11.19;56.35
75913;BME280;64592;52.168;21.040;2023-05-07T13:09:39;101430.34;;;11.13;56.24
75913;BME280;64592;52.168;21.040;2023-05-07T13:14:42;101429.81;;;11.22;57.25
75913;BME280;64592;52.168;21.040;2023-05-07T13:19:45;101438.97;;;11.34;56.35
75913;BME280;64592;52.168;21.040;2023-05-07T13:24:49;101431.09;;;11.45;56.34
75913;BME280;64592;52.168;21.040;2023-05-07T13:29:51;101429.75;;;11.52;55.07
75913;BME280;64592;52.168;21.040;2023-05-07T13:34:54;101433.03;;;11.57;55.36
75913;BME280;64592;52.168;21.040;2023-05-07T13:39:56;101442.38;;;11.52;55.54
75913;BME280;64592;52.168;21.040;2023-05-07T13:44:58;101426.28;;;11.64;54.05
75913;BME280;64592;52.168;21.040;2023-05-07T13:50:05;101425.38;;;12.35;52.94
75913;BME280;64592;52.168;21.040;2023-05-07T13:55:08;101417.63;;;12.82;50.42
75913;BME280;64592;52.168;21.040;2023-05-07T14:00:12;101423.56;;;13.02;49.36
75913;BME280;64592;52.168;21.040;2023-05-07T14:05:17;101423.84;;;13.37;49.22
75913;BME280;64592;52.168;21.040;2023-05-07T14:10:19;101423.53;;;13.67;48.62
75913;BME280;64592;52.168;21.040;2023-05-07T14:15:22;101425.66;;;13.99;46.89
75913;BME280;64592;52.168;21.040;2023-05-07T14:20:26;101432.84;;;14.37;45.51
75913;BME280;64592;52.168;21.040;2023-05-07T14:25:31;101434.38;;;14.89;44.17
75913;BME280;64592;52.168;21.040;2023-05-07T14:30:33;101435.53;;;15.43;42.22
75913;BME280;64592;52.168;21.040;2023-05-07T14:35:42;101435.59;;;15.55;40.79
75913;BME280;64592;52.168;21.040;2023-05-07T14:40:48;101421.59;;;15.02;42.08
75913;BME280;64592;52.168;21.040;2023-05-07T14:45:50;101436.78;;;15.04;42.21
75913;BME280;64592;52.168;21.040;2023-05-07T14:50:53;101438.94;;;15.23;42.08
75913;BME280;64592;52.168;21.040;2023-05-07T14:55:59;101441.09;;;15.07;41.84
75913;BME280;64592;52.168;21.040;2023-05-07T15:01:01;101422.94;;;15.42;41.51
75913;BME280;64592;52.168;21.040;2023-05-07T15:06:04;101433.16;;;15.74;39.25
75913;BME280;64592;52.168;21.040;2023-05-07T15:11:06;101434.13;;;15.95;39.33
75913;BME280;64592;52.168;21.040;2023-05-07T15:16:09;101444.63;;;16.33;39.12
75913;BME280;64592;52.168;21.040;2023-05-07T15:21:13;101440.69;;;16.37;37.29
75913;BME280;64592;52.168;21.040;2023-05-07T15:26:15;101445.00;;;16.94;36.20
75913;BME280;64592;52.168;21.040;2023-05-07T15:31:17;101447.53;;;17.06;35.36
75913;BME280;64592;52.168;21.040;2023-05-07T15:36:21;101439.66;;;17.66;34.34
75913;BME280;64592;52.168;21.040;2023-05-07T15:41:22;101443.81;;;17.49;34.43
75913;BME280;64592;52.168;21.040;2023-05-07T15:46:26;101449.03;;;16.45;36.94
75913;BME280;64592;52.168;21.040;2023-05-07T15:51:33;101449.59;;;15.83;36.81
75913;BME280;64592;52.168;21.040;2023-05-07T15:56:36;101453.78;;;15.30;38.12
75913;BME280;64592;52.168;21.040;2023-05-07T16:01:38;101446.00;;;14.67;40.21
75913;BME280;64592;52.168;21.040;2023-05-07T16:06:42;101434.19;;;14.19;42.14
75913;BME280;64592;52.168;21.040;2023-05-07T16:11:47;101453.75;;;13.86;42.35
75913;BME280;64592;52.168;21.040;2023-05-07T16:16:49;101446.28;;;13.51;43.74
75913;BME280;64592;52.168;21.040;2023-05-07T16:21:52;101446.91;;;13.17;44.73
75913;BME280;64592;52.168;21.040;2023-05-07T16:26:55;101442.78;;;12.97;44.80
75913;BME280;64592;52.168;21.040;2023-05-07T16:31:57;101445.78;;;12.80;46.18
75913;BME280;64592;52.168;21.040;2023-05-07T16:37:02;101450.13;;;12.56;45.83
75913;BME280;64592;52.168;21.040;2023-05-07T16:42:04;101444.38;;;12.33;46.76
75913;BME280;64592;52.168;21.040;2023-05-07T16:47:06;101452.44;;;12.21;48.85
75913;BME280;64592;52.168;21.040;2023-05-07T16:52:09;101461.22;;;12.10;48.73
75913;BME280;64592;52.168;21.040;2023-05-07T16:57:13;101462.13;;;11.96;49.01
75913;BME280;64592;52.168;21.040;2023-05-07T17:02:17;101464.91;;;11.81;50.76
75913;BME280;64592;52.168;21.040;2023-05-07T17:07:24;101462.16;;;11.66;50.51
75913;BME280;64592;52.168;21.040;2023-05-07T17:12:26;101473.53;;;11.57;51.19
75913;BME280;64592;52.168;21.040;2023-05-07T17:17:32;101469.47;;;11.50;51.23
75913;BME280;64592;52.168;21.040;2023-05-07T17:22:35;101474.47;;;11.42;51.63
75913;BME280;64592;52.168;21.040;2023-05-07T17:27:38;101473.31;;;11.32;51.97
75913;BME280;64592;52.168;21.040;2023-05-07T17:32:42;101486.41;;;11.24;52.57
75913;BME280;64592;52.168;21.040;2023-05-07T17:37:46;101490.44;;;11.17;52.24
75913;BME280;64592;52.168;21.040;2023-05-07T17:42:51;101493.75;;;11.06;53.50
75913;BME280;64592;52.168;21.040;2023-05-07T17:47:53;101500.41;;;11.01;54.50
75913;BME280;64592;52.168;21.040;2023-05-07T17:52:58;101504.69;;;10.89;54.63
75913;BME280;64592;52.168;21.040;2023-05-07T17:58:01;101503.56;;;10.77;55.00
75913;BME280;64592;52.168;21.040;2023-05-07T18:03:10;101513.31;;;10.64;56.16
75913;BME280;64592;52.168;21.040;2023-05-07T18:08:13;101519.22;;;10.55;56.22
75913;BME280;64592;52.168;21.040;2023-05-07T18:13:17;101526.09;;;10.45;56.56
75913;BME280;64592;52.168;21.040;2023-05-07T18:18:20;101536.00;;;10.29;57.47
75913;BME280;64592;52.168;21.040;2023-05-07T18:23:27;101535.22;;;10.27;58.16
75913;BME280;64592;52.168;21.040;2023-05-07T18:28:29;101540.38;;;10.14;57.37
75913;BME280;64592;52.168;21.040;2023-05-07T18:33:31;101543.66;;;10.03;58.00
75913;BME280;64592;52.168;21.040;2023-05-07T18:38:34;101557.78;;;9.91;58.36
75913;BME280;64592;52.168;21.040;2023-05-07T18:43:37;101553.44;;;9.71;59.85
75913;BME280;64592;52.168;21.040;2023-05-07T18:48:39;101558.34;;;9.63;59.70
75913;BME280;64592;52.168;21.040;2023-05-07T18:53:42;101572.06;;;9.59;59.70
75913;BME280;64592;52.168;21.040;2023-05-07T18:58:47;101570.78;;;9.49;60.64
75913;BME280;64592;52.168;21.040;2023-05-07T19:03:49;101580.28;;;9.39;60.56
75913;BME280;64592;52.168;21.040;2023-05-07T19:08:53;101574.44;;;9.30;60.61
75913;BME280;64592;52.168;21.040;2023-05-07T19:13:55;101592.63;;;9.25;61.01
75913;BME280;64592;52.168;21.040;2023-05-07T19:18:57;101592.91;;;9.19;61.76
75913;BME280;64592;52.168;21.040;2023-05-07T19:24:01;101600.34;;;9.14;62.21
75913;BME280;64592;52.168;21.040;2023-05-07T19:29:03;101605.03;;;9.11;62.23
75913;BME280;64592;52.168;21.040;2023-05-07T19:34:07;101608.28;;;8.99;63.13
75913;BME280;64592;52.168;21.040;2023-05-07T19:39:12;101617.53;;;8.93;63.08
75913;BME280;64592;52.168;21.040;2023-05-07T19:44:15;101630.19;;;8.91;63.28
75913;BME280;64592;52.168;21.040;2023-05-07T19:49:17;101632.22;;;8.86;63.18
75913;BME280;64592;52.168;21.040;2023-05-07T19:54:20;101626.09;;;8.82;63.34
75913;BME280;64592;52.168;21.040;2023-05-07T19:59:22;101628.22;;;8.76;63.79
75913;BME280;64592;52.168;21.040;2023-05-07T20:04:24;101633.75;;;8.73;64.43
75913;BME280;64592;52.168;21.040;2023-05-07T20:09:32;101635.00;;;8.66;63.94
75913;BME280;64592;52.168;21.040;2023-05-07T20:14:35;101635.47;;;8.55;65.43
75913;BME280;64592;52.168;21.040;2023-05-07T20:19:38;101644.19;;;8.60;65.15
75913;BME280;64592;52.168;21.040;2023-05-07T20:24:41;101650.53;;;8.59;65.21
75913;BME280;64592;52.168;21.040;2023-05-07T20:29:43;101653.47;;;8.53;66.62
75913;BME280;64592;52.168;21.040;2023-05-07T20:34:45;101653.19;;;8.40;66.20
75913;BME280;64592;52.168;21.040;2023-05-07T20:39:48;101656.16;;;8.34;66.19
75913;BME280;64592;52.168;21.040;2023-05-07T20:44:51;101666.09;;;8.32;67.21
75913;BME280;64592;52.168;21.040;2023-05-07T20:49:54;101666.41;;;8.25;67.51
75913;BME280;64592;52.168;21.040;2023-05-07T20:54:59;101672.06;;;8.18;67.59
75913;BME280;64592;52.168;21.040;2023-05-07T21:00:03;101667.94;;;8.10;67.81
75913;BME280;64592;52.168;21.040;2023-05-07T21:05:05;101672.94;;;7.99;69.46
75913;BME280;64592;52.168;21.040;2023-05-07T21:10:09;101682.97;;;7.94;68.07
75913;BME280;64592;52.168;21.040;2023-05-07T21:15:12;101687.97;;;7.83;68.65
75913;BME280;64592;52.168;21.040;2023-05-07T21:20:14;101701.09;;;7.68;70.55
75913;BME280;64592;52.168;21.040;2023-05-07T21:25:17;101703.88;;;7.65;70.02
75913;BME280;64592;52.168;21.040;2023-05-07T21:30:19;101707.09;;;7.53;70.46
75913;BME280;64592;52.168;21.040;2023-05-07T21:35:21;101720.75;;;7.47;70.65
75913;BME280;64592;52.168;21.040;2023-05-07T21:40:24;101721.81;;;7.43;72.13
75913;BME280;64592;52.168;21.040;2023-05-07T21:45:25;101719.28;;;7.40;71.87
75913;BME280;64592;52.168;21.040;2023-05-07T21:50:29;101731.97;;;7.35;71.72
75913;BME280;64592;52.168;21.040;2023-05-07T21:55:32;101730.34;;;7.31;72.98
75913;BME280;64592;52.168;21.040;2023-05-07T22:00:34;101730.78;;;7.20;72.45
75913;BME280;64592;52.168;21.040;2023-05-07T22:05:35;101739.94;;;7.15;72.76
75913;BME280;64592;52.168;21.040;2023-05-07T22:10:39;101736.56;;;7.10;73.29
75913;BME280;64592;52.168;21.040;2023-05-07T22:15:43;101731.50;;;7.02;73.10
75913;BME280;64592;52.168;21.040;2023-05-07T22:20:45;101741.59;;;6.95;74.54
75913;BME280;64592;52.168;21.040;2023-05-07T22:25:49;101738.97;;;6.94;74.62
75913;BME280;64592;52.168;21.040;2023-05-07T22:30:52;101736.53;;;6.88;74.48
75913;BME280;64592;52.168;21.040;2023-05-07T22:35:55;101737.88;;;6.75;74.47
75913;BME280;64592;52.168;21.040;2023-05-07T22:40:58;101736.88;;;6.54;75.38
75913;BME280;64592;52.168;21.040;2023-05-07T22:46:01;101731.84;;;6.45;75.71
75913;BME280;64592;52.168;21.040;2023-05-07T22:51:03;101735.91;;;6.32;76.80
75913;BME280;64592;52.168;21.040;2023-05-07T22:56:07;101737.88;;;6.27;76.18
75913;BME280;64592;52.168;21.040;2023-05-07T23:01:11;101740.88;;;6.17;77.08
75913;BME280;64592;52.168;21.040;2023-05-07T23:06:13;101733.16;;;6.08;77.80
75913;BME280;64592;52.168;21.040;2023-05-07T23:11:16;101738.84;;;5.99;77.59
75913;BME280;64592;52.168;21.040;2023-05-07T23:16:18;101739.22;;;5.87;78.50
75913;BME280;64592;52.168;21.040;2023-05-07T23:21:21;101743.00;;;5.81;77.48
75913;BME280;64592;52.168;21.040;2023-05-07T23:26:27;101738.50;;;5.82;77.82
75913;BME280;64592;52.168;21.040;2023-05-07T23:31:29;101740.53;;;5.75;78.18
75913;BME280;64592;52.168;21.040;2023-05-07T23:36:34;101736.56;;;5.61;78.67
75913;BME280;64592;52.168;21.040;2023-05-07T23:41:37;101736.69;;;5.56;79.57
75913;BME280;64592;52.168;21.040;2023-05-07T23:46:39;101735.22;;;5.47;78.72
75913;BME280;64592;52.168;21.040;2023-05-07T23:51:40;101730.09;;;5.40;79.14
75913;BME280;64592;52.168;21.040;2023-05-07T23:56:44;101733.03;;;5.32;78.98
